Time;durP1;ratioP1;P1;durP2;ratioP2;P2;SDS_P1;SDS_P2;PMS_P1;PMS_P2;Temp;Humidity;BMP_temperature;BMP_pressure;BME280_temperature;BME280_humidity;BME280_pressure;Samples;Min_cycle;Max_cycle;Signal;HPM_P1;HPM_P2
2022/01/15 00:01:45;;;;;;;67.97;23.90;;;6.40;99.90;;;;;;5132724;27;20050;-69
2022/01/15 00:04:11;;;;;;;67.65;23.60;;;6.60;99.90;;;;;;5132570;27;20043;-69
2022/01/15 00:06:37;;;;;;;72.88;24.95;;;5.80;99.90;;;;;;5133894;27;20452;-69
2022/01/15 00:09:04;;;;;;;61.03;22.90;;;;;;;;;;5132635;27;20066;-69
2022/01/15 00:11:31;;;;;;;70.10;24.55;;;;;;;;;;5120750;27;20144;-69
2022/01/15 00:14:11;;;;;;;65.78;24.08;;;6.20;99.90;;;;;;5112166;28;20501;-69
2022/01/15 00:16:55;;;;;;;59.63;23.08;;;6.40;99.90;;;;;;5112593;28;20047;-69
2022/01/15 00:19:31;;;;;;;89.47;25.42;;;;;;;;;;5112502;28;20445;-69
2022/01/15 00:21:57;;;;;;;87.13;25.98;;;;;;;;;;5113614;28;20039;-69
2022/01/15 00:24:24;;;;;;;77.85;23.90;;;;;;;;;;5113598;28;20063;-69
2022/01/15 00:26:50;;;;;;;82.45;25.33;;;6.40;99.90;;;;;;5127055;27;20057;-69
2022/01/15 00:29:16;;;;;;;83.68;25.13;;;;;;;;;;5134009;27;20122;-69
2022/01/15 00:31:42;;;;;;;75.22;24.70;;;;;;;;;;5133742;27;20428;-69
2022/01/15 00:34:08;;;;;;;83.18;25.50;;;7.00;99.90;;;;;;5131521;27;20062;-69
2022/01/15 00:36:33;;;;;;;79.13;24.52;;;5.90;99.90;;;;;;5132653;27;20039;-69
2022/01/15 00:39:00;;;;;;;72.68;24.80;;;;;;;;;;5115541;27;20043;-69
2022/01/15 00:41:29;;;;;;;79.75;24.77;;;6.30;99.90;;;;;;5119641;27;20032;-69
2022/01/15 00:43:55;;;;;;;76.65;24.67;;;;;;;;;;5111732;28;20487;-69
2022/01/15 00:46:21;;;;;;;87.18;26.15;;;;;;;;;;5111608;28;20055;-69
2022/01/15 00:48:47;;;;;;;92.13;26.92;;;;;;;;;;5111361;28;20055;-69
2022/01/15 00:51:13;;;;;;;88.90;26.52;;;;;;;;;;5110002;28;20040;-69
2022/01/15 00:53:39;;;;;;;73.50;25.35;;;;;;;;;;5111150;28;20044;-69
2022/01/15 00:56:05;;;;;;;96.88;26.88;;;;;;;;;;5112455;28;20047;-69
2022/01/15 00:58:33;;;;;;;109.30;28.38;;;6.00;99.90;;;;;;5111484;28;20085;-69
2022/01/15 01:01:00;;;;;;;59.85;23.30;;;6.40;99.90;;;;;;5111197;28;20488;-69
2022/01/15 01:03:25;;;;;;;124.88;29.15;;;6.40;99.90;;;;;;5111029;28;20130;-69
2022/01/15 01:05:51;;;;;;;84.88;27.50;;;6.30;99.90;;;;;;5094222;28;20509;-69
2022/01/15 01:08:17;;;;;;;90.97;26.65;;;;;;;;;;5111127;28;20126;-69
2022/01/15 01:10:54;;;;;;;102.60;27.52;;;;;;;;;;5114500;27;20070;-69
2022/01/15 01:24:14;;;;;;;92.78;26.95;;;6.10;99.90;;;;;;5110821;28;20092;-69
2022/01/15 01:26:47;;;;;;;110.80;29.30;;;6.60;99.90;;;;;;5130276;27;20103;-69
2022/01/15 01:29:28;;;;;;;136.40;30.80;;;;;;;;;;5131273;27;20058;-69
2022/01/15 01:34:35;;;;;;;102.63;28.27;;;;;;;;;;5132393;27;20055;-69
2022/01/15 01:39:50;;;;;;;94.47;28.95;;;;;;;;;;5127526;27;20093;-69
2022/01/15 01:44:58;;;;;;;102.03;28.98;;;6.10;99.90;;;;;;5111637;28;20448;-69
2022/01/15 01:47:35;;;;;;;116.45;30.75;;;;;;;;;;5127291;27;20096;-69
2022/01/15 01:50:00;;;;;;;101.85;29.90;;;6.50;99.90;;;;;;5110309;28;20043;-69
2022/01/15 01:52:26;;;;;;;99.15;29.90;;;6.70;99.90;;;;;;5111378;28;20039;-69
2022/01/15 01:54:53;;;;;;;81.70;27.38;;;6.40;99.90;;;;;;5117595;27;20039;-69
2022/01/15 01:57:19;;;;;;;77.35;26.05;;;;;;;;;;5127556;27;20437;-69
2022/01/15 01:59:45;;;;;;;78.63;27.02;;;5.70;99.90;;;;;;5109891;28;20058;-69
2022/01/15 02:02:11;;;;;;;68.97;24.42;;;6.10;99.90;;;;;;5093428;28;20035;-69
2022/01/15 02:04:37;;;;;;;78.47;24.88;;;;;;;;;;5110102;28;20044;-69
2022/01/15 02:07:03;;;;;;;68.18;23.70;;;5.80;99.90;;;;;;5109863;28;20503;-69
2022/01/15 02:09:29;;;;;;;69.38;25.20;;;6.20;99.90;;;;;;5111395;28;20059;-69
2022/01/15 02:11:55;;;;;;;91.03;26.77;;;6.50;99.90;;;;;;5110083;28;20078;-69
2022/01/15 02:14:29;;;;;;;65.72;23.85;;;6.10;99.90;;;;;;5107136;27;20031;-69
2022/01/15 02:16:59;;;;;;;74.72;24.65;;;6.30;99.90;;;;;;5130093;27;20068;-69
2022/01/15 02:19:44;;;;;;;77.75;24.85;;;6.20;99.90;;;;;;5130218;27;20547;-69
2022/01/15 02:24:54;;;;;;;83.53;25.83;;;5.90;99.90;;;;;;5132704;27;20394;-69
2022/01/15 02:27:20;;;;;;;85.03;25.85;;;;;;;;;;5127089;27;20048;-69
2022/01/15 02:29:46;;;;;;;66.82;24.48;;;5.90;99.90;;;;;;5110237;28;20494;-69
2022/01/15 02:32:11;;;;;;;77.95;26.17;;;6.60;99.90;;;;;;5111255;28;20044;-69
2022/01/15 02:34:38;;;;;;;91.82;26.08;;;;;;;;;;5094166;28;20044;-69
2022/01/15 02:37:03;;;;;;;62.70;23.20;;;6.00;99.90;;;;;;5109444;28;20047;-69
2022/01/15 02:39:29;;;;;;;86.25;25.05;;;6.10;99.90;;;;;;5109357;28;20395;-69
2022/01/15 02:41:55;;;;;;;72.78;24.67;;;;;;;;;;5110787;28;20043;-69
2022/01/15 02:44:20;;;;;;;59.38;22.58;;;6.40;99.90;;;;;;5110867;28;20130;-70
2022/01/15 02:49:16;;;;;;;61.75;21.48;;;6.10;99.90;;;;;;5127552;27;20137;-69
2022/01/15 02:51:41;;;;;;;43.03;17.75;;;6.20;99.90;;;;;;5130650;27;20130;-69
2022/01/15 02:54:08;;;;;;;55.72;20.40;;;6.30;99.90;;;;;;5131251;27;20055;-69
2022/01/15 02:56:39;;;;;;;45.05;18.65;;;6.10;99.90;;;;;;5130216;27;20117;-69
2022/01/15 02:59:08;;;;;;;60.72;21.02;;;6.30;99.90;;;;;;5131369;28;20087;-69
2022/01/15 03:01:34;;;;;;;49.25;19.08;;;;;;;;;;5129990;27;20047;-69
2022/01/15 03:04:00;;;;;;;54.28;20.42;;;6.30;99.90;;;;;;5110837;28;20075;-69
2022/01/15 03:06:26;;;;;;;51.53;20.35;;;6.20;99.90;;;;;;5109266;28;20056;-69
2022/01/15 03:08:52;;;;;;;52.20;20.63;;;6.10;99.90;;;;;;5109031;28;20566;-69
2022/01/15 03:11:20;;;;;;;49.72;19.67;;;6.10;99.90;;;;;;5110820;28;20047;-69
2022/01/15 03:13:46;;;;;;;54.72;20.55;;;6.10;99.90;;;;;;5108970;28;20131;-69
2022/01/15 03:16:15;;;;;;;64.30;21.27;;;6.20;99.90;;;;;;5114287;28;20042;-68
2022/01/15 03:18:41;;;;;;;55.92;19.95;;;6.20;99.90;;;;;;5130783;27;20039;-69
2022/01/15 03:21:08;;;;;;;57.38;20.98;;;6.30;99.90;;;;;;5133903;27;20039;-69
2022/01/15 03:23:34;;;;;;;70.18;21.42;;;;;;;;;;5133883;27;20525;-69
2022/01/15 03:25:59;;;;;;;69.13;22.02;;;6.30;99.90;;;;;;5134218;27;20534;-69
2022/01/15 03:28:25;;;;;;;79.53;22.35;;;6.30;99.90;;;;;;5133479;27;20110;-69
2022/01/15 03:30:52;;;;;;;44.42;19.30;;;;;;;;;;5133663;27;20073;-69
2022/01/15 03:33:18;;;;;;;87.57;23.25;;;5.80;99.90;;;;;;5116318;27;20050;-69
2022/01/15 03:35:45;;;;;;;60.58;21.08;;;6.10;99.90;;;;;;5114681;28;20040;-69
2022/01/15 03:38:10;;;;;;;68.60;21.58;;;6.10;99.90;;;;;;5129970;27;20043;-69
2022/01/15 03:40:36;;;;;;;69.18;22.63;;;6.10;99.90;;;;;;5096156;28;20398;-69
2022/01/15 03:43:04;;;;;;;52.55;19.05;;;6.10;99.90;;;;;;5114256;28;20490;-69
2022/01/15 03:45:29;;;;;;;47.03;18.85;;;6.70;99.90;;;;;;5113119;28;20047;-68
2022/01/15 03:47:58;;;;;;;63.58;20.30;;;;;;;;;;5128322;27;20180;-69
2022/01/15 03:50:25;;;;;;;46.63;17.83;;;6.10;99.90;;;;;;5135177;27;20115;-69
2022/01/15 03:52:53;;;;;;;47.08;18.27;;;6.20;99.90;;;;;;5133611;27;20043;-69
2022/01/15 03:55:20;;;;;;;44.40;17.95;;;6.20;99.90;;;;;;5134809;27;20035;-69
2022/01/15 03:57:46;;;;;;;35.67;16.35;;;6.30;99.90;;;;;;5133395;27;20042;-69
2022/01/15 04:00:18;;;;;;;47.05;18.60;;;6.20;99.90;;;;;;5134370;27;20043;-69
2022/01/15 04:02:44;;;;;;;42.67;17.75;;;;;;;;;;5116640;27;20124;-69
2022/01/15 04:05:11;;;;;;;44.08;17.85;;;6.30;99.90;;;;;;5112873;28;20405;-69
2022/01/15 04:07:37;;;;;;;49.22;17.90;;;;;;;;;;5112433;28;20048;-69
2022/01/15 04:10:05;;;;;;;45.78;18.58;;;6.10;99.90;;;;;;5095143;28;20142;-68
2022/01/15 04:12:31;;;;;;;39.58;16.35;;;6.00;99.90;;;;;;5113531;27;20047;-69
2022/01/15 04:14:57;;;;;;;41.15;16.75;;;;;;;;;;5112220;28;20039;-69
2022/01/15 04:17:25;;;;;;;45.70;16.50;;;6.00;99.90;;;;;;5112588;27;20043;-69
2022/01/15 04:19:51;;;;;;;49.15;17.83;;;6.10;99.90;;;;;;5112462;28;20044;-69
2022/01/15 04:22:18;;;;;;;43.20;16.60;;;6.30;99.90;;;;;;5113217;28;20631;-69
2022/01/15 04:24:44;;;;;;;37.50;16.40;;;5.40;99.90;;;;;;5094894;28;20036;-69
2022/01/15 04:27:10;;;;;;;40.95;16.23;;;6.40;99.90;;;;;;5094564;28;20039;-69
2022/01/15 04:29:35;;;;;;;38.65;15.68;;;6.00;99.90;;;;;;5113043;28;20048;-68
2022/01/15 04:32:02;;;;;;;34.22;14.93;;;6.00;99.90;;;;;;5126223;27;20382;-68
2022/01/15 04:34:29;;;;;;;30.55;14.55;;;6.10;99.90;;;;;;5115129;27;20047;-69
2022/01/15 04:37:01;;;;;;;31.98;14.65;;;6.10;99.90;;;;;;5132394;27;20065;-69
2022/01/15 04:39:27;;;;;;;39.15;15.15;;;;;;;;;;5132228;27;20043;-69
2022/01/15 04:41:56;;;;;;;39.63;15.82;;;6.40;99.90;;;;;;5133948;27;20039;-69
2022/01/15 04:44:22;;;;;;;42.28;16.00;;;;;;;;;;5132519;27;20411;-69
2022/01/15 04:46:49;;;;;;;34.08;15.32;;;;;;;;;;5118720;27;20039;-69
2022/01/15 04:49:14;;;;;;;35.33;15.60;;;6.00;99.90;;;;;;5111412;28;20075;-69
2022/01/15 04:51:40;;;;;;;40.28;16.20;;;6.20;99.90;;;;;;5128233;27;20079;-69
2022/01/15 04:54:06;;;;;;;47.42;17.60;;;;;;;;;;5112507;28;20054;-69
2022/01/15 04:56:32;;;;;;;49.95;18.20;;;;;;;;;;5111447;28;20039;-70
2022/01/15 04:58:58;;;;;;;50.72;17.63;;;5.50;99.90;;;;;;5111179;28;20040;-70
2022/01/15 05:01:24;;;;;;;45.47;17.80;;;6.60;99.90;;;;;;5125901;27;20072;-70
2022/01/15 05:03:52;;;;;;;48.33;16.77;;;;;;;;;;5131894;27;20054;-70
2022/01/15 05:06:20;;;;;;;35.08;14.98;;;6.40;99.90;;;;;;5133149;27;20478;-70
2022/01/15 05:08:47;;;;;;;51.38;17.63;;;;;;;;;;5131331;27;20039;-70
2022/01/15 05:11:29;;;;;;;35.53;15.43;;;;;;;;;;5131277;27;20115;-70
2022/01/15 05:13:55;;;;;;;38.63;15.32;;;;;;;;;;5131424;27;20135;-70
2022/01/15 05:16:21;;;;;;;47.00;16.67;;;6.30;99.90;;;;;;5130638;27;20043;-70
2022/01/15 05:18:46;;;;;;;37.47;15.40;;;6.00;99.90;;;;;;5132899;27;20413;-69
2022/01/15 05:21:13;;;;;;;47.92;16.73;;;;;;;;;;5131399;27;20055;-69
2022/01/15 05:23:40;;;;;;;45.15;15.48;;;6.00;99.90;;;;;;5131365;27;20046;-69
2022/01/15 05:26:05;;;;;;;46.08;16.38;;;6.10;99.90;;;;;;5131041;27;20047;-69
2022/01/15 05:28:31;;;;;;;44.63;15.88;;;5.70;99.90;;;;;;5131217;27;20126;-69
2022/01/15 05:30:57;;;;;;;39.08;14.68;;;5.60;99.90;;;;;;5121951;27;20046;-70
2022/01/15 05:33:22;;;;;;;37.35;14.98;;;6.10;99.90;;;;;;5093479;28;20460;-70
2022/01/15 05:35:49;;;;;;;46.28;15.68;;;5.80;99.90;;;;;;5112028;28;20043;-70
2022/01/15 05:38:15;;;;;;;47.38;15.95;;;;;;;;;;5109808;28;20173;-70
2022/01/15 05:40:41;;;;;;;45.30;15.63;;;;;;;;;;5093679;28;20040;-70
2022/01/15 05:43:07;;;;;;;43.20;16.27;;;6.00;99.90;;;;;;5094248;28;20472;-70
2022/01/15 05:45:33;;;;;;;31.42;14.15;;;;;;;;;;5127428;27;20051;-70
2022/01/15 05:47:58;;;;;;;27.70;12.48;;;5.50;99.90;;;;;;5110742;28;20050;-70
2022/01/15 05:50:24;;;;;;;25.40;11.95;;;6.10;99.90;;;;;;5110309;28;20410;-70
2022/01/15 05:52:50;;;;;;;22.63;10.77;;;;;;;;;;5127107;27;20108;-70
2022/01/15 05:55:16;;;;;;;21.25;11.25;;;;;;;;;;5093654;28;20377;-70
2022/01/15 05:57:42;;;;;;;15.88;8.43;;;5.70;99.90;;;;;;5111763;28;20057;-69
2022/01/15 06:00:10;;;;;;;17.38;9.75;;;6.00;99.90;;;;;;5124506;27;20039;-70
2022/01/15 06:02:36;;;;;;;19.38;9.95;;;6.00;99.90;;;;;;5130921;27;20039;-70
2022/01/15 06:05:02;;;;;;;18.88;10.45;;;5.80;99.90;;;;;;5132502;27;20434;-70
2022/01/15 06:07:29;;;;;;;23.00;11.05;;;5.90;99.90;;;;;;5132168;27;20083;-69
2022/01/15 06:09:54;;;;;;;21.98;11.65;;;5.50;99.90;;;;;;5130454;27;20375;-70
2022/01/15 06:12:28;;;;;;;24.40;12.57;;;;;;;;;;5130747;27;20050;-70
2022/01/15 06:14:53;;;;;;;27.05;13.23;;;5.90;99.90;;;;;;5118354;27;20114;-70
2022/01/15 06:17:19;;;;;;;27.52;13.73;;;5.80;99.90;;;;;;5109601;28;20114;-69
2022/01/15 06:19:45;;;;;;;28.90;13.95;;;5.80;99.90;;;;;;5109611;28;20088;-70
2022/01/15 06:22:11;;;;;;;31.45;14.27;;;;;;;;;;5109470;28;20050;-69
2022/01/15 06:24:36;;;;;;;28.13;13.32;;;6.10;99.90;;;;;;5109547;28;20043;-70
2022/01/15 06:27:03;;;;;;;32.92;14.02;;;5.90;99.90;;;;;;5110792;28;20043;-70
2022/01/15 06:29:30;;;;;;;26.65;13.00;;;5.60;99.90;;;;;;5116214;27;20039;-70
2022/01/15 06:31:57;;;;;;;31.05;14.10;;;5.90;99.90;;;;;;5132182;27;20143;-70
2022/01/15 06:34:22;;;;;;;31.92;15.32;;;5.80;99.90;;;;;;5131385;27;20047;-69
2022/01/15 06:36:48;;;;;;;37.80;15.90;;;5.90;99.90;;;;;;5112886;27;20505;-69
2022/01/15 06:39:14;;;;;;;40.22;16.15;;;;;;;;;;5130053;27;20447;-70
2022/01/15 06:41:40;;;;;;;36.53;15.10;;;6.00;99.90;;;;;;5130335;27;20104;-70
2022/01/15 06:44:05;;;;;;;34.13;14.38;;;5.70;99.90;;;;;;5130729;27;20046;-68
2022/01/15 06:46:31;;;;;;;37.20;15.30;;;5.70;99.90;;;;;;5129809;27;20121;-68
2022/01/15 06:48:57;;;;;;;33.90;14.40;;;6.00;99.90;;;;;;5130777;27;20034;-69
2022/01/15 06:51:24;;;;;;;28.13;13.80;;;6.20;99.90;;;;;;5129495;27;20066;-69
2022/01/15 06:53:50;;;;;;;40.08;15.30;;;5.70;99.90;;;;;;5129281;28;20043;-68
2022/01/15 06:56:15;;;;;;;30.05;14.80;;;5.90;99.90;;;;;;5112665;28;20045;-69
2022/01/15 06:58:42;;;;;;;36.55;15.38;;;5.70;99.90;;;;;;5112580;28;20475;-69
2022/01/15 07:01:08;;;;;;;46.53;17.60;;;5.80;99.90;;;;;;5112616;28;20081;-69
2022/01/15 07:03:34;;;;;;;42.90;17.00;;;;;;;;;;5129357;28;20078;-69
2022/01/15 07:06:00;;;;;;;45.22;16.40;;;;;;;;;;5108981;28;20167;-69
2022/01/15 07:08:26;;;;;;;43.17;16.67;;;6.00;99.90;;;;;;5109041;28;20059;-68
2022/01/15 07:10:52;;;;;;;41.03;16.55;;;;;;;;;;5108970;28;20064;-69
2022/01/15 07:13:21;;;;;;;38.05;15.60;;;6.30;99.90;;;;;;5109404;28;20047;-69
2022/01/15 07:15:47;;;;;;;38.10;16.50;;;5.40;99.90;;;;;;5110484;28;20105;-68
2022/01/15 07:18:13;;;;;;;44.30;17.00;;;;;;;;;;5109447;28;20514;-69
2022/01/15 07:20:39;;;;;;;39.72;16.27;;;6.00;99.90;;;;;;5116983;28;20054;-69
2022/01/15 07:23:05;;;;;;;41.83;16.55;;;;;;;;;;5126500;28;20055;-69
2022/01/15 07:25:31;;;;;;;38.10;16.83;;;5.40;99.90;;;;;;5109365;28;20051;-69
2022/01/15 07:27:56;;;;;;;33.28;15.48;;;6.10;99.90;;;;;;5110640;28;20043;-69
2022/01/15 07:30:23;;;;;;;39.75;16.75;;;;;;;;;;5109586;28;20044;-68
2022/01/15 07:32:49;;;;;;;47.88;16.95;;;;;;;;;;5109526;28;20544;-69
2022/01/15 07:35:15;;;;;;;311.67;34.85;;;6.00;99.90;;;;;;5104681;28;20096;-68
2022/01/15 07:37:41;;;;;;;114.47;21.25;;;5.70;99.90;;;;;;5129369;28;20076;-69
2022/01/15 07:40:08;;;;;;;141.07;23.25;;;5.50;99.90;;;;;;5129923;28;20082;-68
2022/01/15 07:42:39;;;;;;;111.03;20.27;;;6.30;99.90;;;;;;5125825;28;20044;-69
2022/01/15 07:45:11;;;;;;;33.33;14.10;;;5.90;99.90;;;;;;5092094;28;20383;-68
2022/01/15 07:47:37;;;;;;;23.05;11.88;;;5.80;99.90;;;;;;5110026;28;20111;-69
2022/01/15 07:50:05;;;;;;;24.42;12.70;;;5.60;99.90;;;;;;5108635;28;20035;-69
2022/01/15 07:52:31;;;;;;;24.15;13.07;;;5.50;99.90;;;;;;5108197;28;20547;-69
2022/01/15 07:54:58;;;;;;;24.10;12.70;;;;;;;;;;5111042;28;20047;-68
2022/01/15 07:57:24;;;;;;;25.75;13.05;;;5.90;99.90;;;;;;5108954;28;20050;-69
2022/01/15 07:59:51;;;;;;;25.13;12.95;;;;;;;;;;5109233;28;20150;-69
2022/01/15 08:02:17;;;;;;;40.50;14.95;;;5.70;99.90;;;;;;5094664;28;20044;-69
2022/01/15 08:04:43;;;;;;;29.85;13.90;;;;;;;;;;5113760;28;20078;-69
2022/01/15 08:07:09;;;;;;;30.83;13.98;;;5.80;99.90;;;;;;5112442;28;20035;-68
2022/01/15 08:09:35;;;;;;;40.90;14.93;;;5.60;99.90;;;;;;5112023;28;20051;-68
2022/01/15 08:12:02;;;;;;;50.55;15.70;;;5.80;99.90;;;;;;5129273;27;20040;-69
2022/01/15 08:14:28;;;;;;;56.97;16.80;;;;;;;;;;5118472;27;20054;-69
2022/01/15 08:16:53;;;;;;;38.67;14.90;;;5.40;99.90;;;;;;5118540;27;20059;-69
2022/01/15 08:19:19;;;;;;;35.13;15.40;;;;;;;;;;5124133;27;20047;-68
2022/01/15 08:21:46;;;;;;;37.47;13.52;;;;;;;;;;5112772;28;20070;-68
2022/01/15 08:24:12;;;;;;;35.63;13.75;;;;;;;;;;5113162;28;20047;-69
2022/01/15 08:26:38;;;;;;;27.08;13.80;;;;;;;;;;5095898;27;20181;-68
2022/01/15 08:29:04;;;;;;;27.13;14.05;;;5.60;99.90;;;;;;5104357;28;20047;-68
2022/01/15 08:31:30;;;;;;;196.65;24.75;;;5.60;99.90;;;;;;5125016;27;20043;-69
2022/01/15 08:33:59;;;;;;;134.50;21.83;;;;;;;;;;5112309;27;20480;-69
2022/01/15 08:36:25;;;;;;;70.07;17.60;;;;;;;;;;5110379;27;20196;-69
2022/01/15 08:38:51;;;;;;;41.13;15.68;;;5.90;99.90;;;;;;5125738;27;20039;-69
2022/01/15 08:41:17;;;;;;;91.00;18.42;;;;;;;;;;5093769;28;20055;-69
2022/01/15 08:43:43;;;;;;;46.28;17.42;;;5.50;99.90;;;;;;5094251;28;20051;-68
2022/01/15 08:46:08;;;;;;;55.50;18.20;;;5.20;99.90;;;;;;5093740;28;20385;-69
2022/01/15 08:48:34;;;;;;;71.03;18.75;;;5.50;99.90;;;;;;5094095;28;20487;-69
2022/01/15 08:51:01;;;;;;;46.97;18.60;;;5.60;99.90;;;;;;5093754;27;20055;-69
2022/01/15 08:53:27;;;;;;;41.83;17.88;;;;;;;;;;5093391;28;20075;-69
2022/01/15 08:55:54;;;;;;;107.53;23.52;;;5.90;99.90;;;;;;5090462;28;20418;-69
2022/01/15 08:58:20;;;;;;;62.63;18.50;;;5.50;99.90;;;;;;5090702;28;20581;-68
2022/01/15 09:00:47;;;;;;;40.67;16.90;;;5.70;99.90;;;;;;5090872;28;20165;-69
2022/01/15 09:03:13;;;;;;;29.60;15.25;;;5.80;99.90;;;;;;5091184;28;20060;-69
2022/01/15 09:05:39;;;;;;;45.40;17.95;;;5.70;99.90;;;;;;5090115;28;20054;-69
2022/01/15 09:08:06;;;;;;;65.30;19.40;;;4.90;99.90;;;;;;5089246;28;20378;-69
2022/01/15 09:10:32;;;;;;;70.80;19.23;;;5.40;99.90;;;;;;5098770;28;20055;-69
2022/01/15 09:12:58;;;;;;;120.95;22.88;;;5.70;99.90;;;;;;5110048;27;20256;-69
2022/01/15 09:15:24;;;;;;;35.03;16.10;;;5.70;99.90;;;;;;5110180;28;20138;-69
2022/01/15 09:17:50;;;;;;;24.83;14.63;;;5.50;99.90;;;;;;5111597;27;20521;-69
2022/01/15 09:20:16;;;;;;;23.05;14.80;;;5.50;99.90;;;;;;5110008;28;20475;-69
2022/01/15 09:22:42;;;;;;;22.13;13.52;;;;;;;;;;5122572;27;20113;-68
2022/01/15 09:25:08;;;;;;;21.15;13.68;;;5.70;99.90;;;;;;5093319;28;20051;-69
2022/01/15 09:30:19;;;;;;;23.80;15.15;;;5.20;99.90;;;;;;5109947;28;20188;-69
2022/01/15 09:32:48;;;;;;;21.77;14.52;;;5.10;99.90;;;;;;5079568;28;20131;-69
2022/01/15 09:35:16;;;;;;;29.52;15.23;;;5.80;99.90;;;;;;5089899;28;20388;-69
2022/01/15 09:37:42;;;;;;;47.63;17.70;;;;;;;;;;5090539;28;20087;-69
2022/01/15 09:40:10;;;;;;;23.58;16.45;;;6.30;99.90;;;;;;5110730;28;20431;-69
2022/01/15 09:42:39;;;;;;;24.88;16.67;;;5.90;99.90;;;;;;5109231;27;20047;-69
2022/01/15 09:45:06;;;;;;;31.10;16.48;;;5.50;99.90;;;;;;5109745;28;20042;-69
2022/01/15 09:47:32;;;;;;;43.40;18.20;;;5.50;99.90;;;;;;5095982;28;20118;-69
2022/01/15 09:49:59;;;;;;;41.10;18.45;;;5.60;99.90;;;;;;5089175;28;20540;-69
2022/01/15 09:52:25;;;;;;;51.72;19.13;;;5.60;99.90;;;;;;5089330;28;20047;-69
2022/01/15 09:54:51;;;;;;;32.13;17.23;;;5.60;99.90;;;;;;5090161;28;20059;-68
2022/01/15 09:57:17;;;;;;;29.02;17.52;;;5.50;99.90;;;;;;5090515;28;20040;-68
2022/01/15 09:59:43;;;;;;;31.45;17.15;;;5.80;99.90;;;;;;5088788;28;20051;-69
2022/01/15 10:02:09;;;;;;;38.13;18.27;;;4.80;99.90;;;;;;5090312;28;20040;-69
2022/01/15 10:04:35;;;;;;;29.00;17.77;;;5.20;99.90;;;;;;5088676;28;20462;-70
2022/01/15 10:07:06;;;;;;;31.92;18.27;;;5.60;99.90;;;;;;5089188;28;20054;-70
2022/01/15 10:09:32;;;;;;;30.20;19.20;;;;;;;;;;5089700;28;20058;-69
2022/01/15 10:11:58;;;;;;;36.85;19.52;;;5.50;99.90;;;;;;5106802;28;20043;-70
2022/01/15 10:14:31;;;;;;;34.75;18.52;;;5.60;99.90;;;;;;5110576;27;20055;-70
2022/01/15 10:16:59;;;;;;;32.63;19.30;;;5.60;99.90;;;;;;5096268;28;20514;-70
2022/01/15 10:19:35;;;;;;;33.35;19.88;;;5.80;99.90;;;;;;5090109;28;20055;-70
2022/01/15 10:22:23;;;;;;;32.83;20.85;;;5.60;99.90;;;;;;5100033;27;20055;-71
2022/01/15 10:24:51;;;;;;;36.70;22.10;;;5.60;99.90;;;;;;5108153;28;20055;-70
2022/01/15 10:27:17;;;;;;;36.90;22.08;;;;;;;;;;5108792;28;20055;-71
2022/01/15 10:29:48;;;;;;;34.42;20.85;;;6.20;99.90;;;;;;5108807;28;20055;-71
2022/01/15 10:32:14;;;;;;;35.47;20.90;;;;;;;;;;5120712;27;20074;-70
2022/01/15 10:34:44;;;;;;;36.55;21.65;;;5.70;99.90;;;;;;5109880;27;20428;-69
2022/01/15 10:37:12;;;;;;;36.42;22.00;;;6.00;99.90;;;;;;5109906;28;20043;-68
2022/01/15 10:39:40;;;;;;;37.22;21.45;;;5.30;99.90;;;;;;5108399;28;20066;-68
2022/01/15 10:42:16;;;;;;;44.35;21.33;;;6.10;99.90;;;;;;5108503;28;20052;-68
2022/01/15 10:44:42;;;;;;;36.30;21.30;;;5.50;99.90;;;;;;5110207;27;20407;-69
2022/01/15 10:47:16;;;;;;;36.08;21.83;;;4.70;99.90;;;;;;5109367;28;20048;-68
2022/01/15 10:49:42;;;;;;;32.63;20.98;;;4.80;99.90;;;;;;5092276;27;20360;-68
2022/01/15 10:52:18;;;;;;;31.75;20.27;;;5.80;99.90;;;;;;5110037;28;20542;-68
2022/01/15 10:54:57;;;;;;;29.85;20.60;;;5.50;99.90;;;;;;5108615;27;20070;-69
2022/01/15 10:57:52;;;;;;;31.95;20.70;;;5.80;99.90;;;;;;5125715;28;20130;-68
2022/01/15 11:00:38;;;;;;;33.97;21.17;;;5.90;99.90;;;;;;5100475;28;20051;-69
2022/01/15 11:03:17;;;;;;;31.35;21.17;;;4.00;99.90;;;;;;5089621;28;20506;-69
2022/01/15 11:05:48;;;;;;;33.78;22.05;;;5.20;99.90;;;;;;5088684;28;20076;-68
2022/01/15 11:08:14;;;;;;;32.17;21.75;;;;;;;;;;5088465;28;20097;-68
2022/01/15 11:10:57;;;;;;;32.80;21.45;;;5.60;99.90;;;;;;5087996;28;20052;-69
2022/01/15 11:13:40;;;;;;;31.13;21.02;;;5.60;99.90;;;;;;5085821;28;20061;-69
2022/01/15 11:16:17;;;;;;;32.22;21.20;;;5.70;99.90;;;;;;5102699;27;20048;-68
2022/01/15 11:18:46;;;;;;;34.10;20.92;;;5.70;99.90;;;;;;5108211;28;20075;-68
2022/01/15 11:21:15;;;;;;;35.30;22.92;;;5.30;99.90;;;;;;5107829;28;20062;-68
2022/01/15 11:23:42;;;;;;;38.72;23.85;;;5.40;99.90;;;;;;5108284;28;20055;-68
2022/01/15 11:26:13;;;;;;;37.15;22.95;;;5.60;99.90;;;;;;5107816;28;20052;-68
2022/01/15 11:28:41;;;;;;;40.20;23.95;;;;;;;;;;5109775;28;20039;-68
2022/01/15 11:31:28;;;;;;;39.75;24.33;;;6.00;99.90;;;;;;5092151;28;20056;-69
2022/01/15 11:33:56;;;;;;;36.20;23.25;;;5.70;99.90;;;;;;5089073;28;20048;-68
2022/01/15 11:36:32;;;;;;;40.75;24.50;;;5.70;99.90;;;;;;5091048;28;20090;-68
2022/01/15 11:39:00;;;;;;;47.83;24.90;;;5.50;99.90;;;;;;5093018;28;20073;-69
2022/01/15 11:41:26;;;;;;;38.90;24.52;;;;;;;;;;5106754;27;20063;-69
2022/01/15 11:43:56;;;;;;;37.13;24.23;;;5.50;99.90;;;;;;5112056;28;20039;-69
2022/01/15 11:46:28;;;;;;;37.40;22.73;;;5.60;99.90;;;;;;5104143;28;20491;-68
2022/01/15 11:49:32;;;;;;;36.22;23.30;;;6.00;99.90;;;;;;5091532;28;20489;-69
2022/01/15 11:51:58;;;;;;;33.42;22.52;;;;;;;;;;5092551;28;20059;-69
2022/01/15 11:54:24;;;;;;;34.97;22.17;;;;;;;;;;5092517;28;20048;-68
2022/01/15 11:56:50;;;;;;;31.83;21.60;;;6.10;99.90;;;;;;5108227;28;20562;-70
2022/01/15 11:59:28;;;;;;;29.40;20.67;;;5.60;99.90;;;;;;5091472;28;20047;-70
2022/01/15 12:02:01;;;;;;;28.90;20.27;;;5.50;99.90;;;;;;5091347;28;20050;-70
2022/01/15 12:04:29;;;;;;;24.52;17.85;;;5.30;99.90;;;;;;5074807;28;20047;-70
2022/01/15 12:07:07;;;;;;;30.73;19.90;;;4.90;99.90;;;;;;5092538;28;20040;-69
2022/01/15 12:09:38;;;;;;;26.90;19.95;;;5.40;99.90;;;;;;5090923;28;20173;-69
2022/01/15 12:12:19;;;;;;;26.85;19.52;;;5.40;99.90;;;;;;5109618;27;20483;-68
2022/01/15 12:14:51;;;;;;;29.80;20.15;;;5.40;99.90;;;;;;5111697;28;20461;-70
2022/01/15 12:17:35;;;;;;;31.30;20.67;;;5.60;99.90;;;;;;5095662;28;20438;-70
2022/01/15 12:20:07;;;;;;;26.10;20.05;;;5.40;99.90;;;;;;5096465;28;20454;-70
2022/01/15 12:22:39;;;;;;;27.58;19.95;;;4.80;99.90;;;;;;5111127;27;20051;-70
2022/01/15 12:25:27;;;;;;;30.60;20.98;;;5.60;99.90;;;;;;5128205;27;20150;-70
2022/01/15 12:28:00;;;;;;;28.92;20.40;;;5.30;99.90;;;;;;5111147;28;20189;-70
2022/01/15 12:30:32;;;;;;;32.30;21.60;;;5.60;99.90;;;;;;5111920;28;20479;-70
2022/01/15 12:33:03;;;;;;;29.73;20.02;;;5.50;99.90;;;;;;5111894;28;20078;-70
2022/01/15 12:35:30;;;;;;;30.95;20.70;;;5.50;99.90;;;;;;5122196;27;20043;-70
2022/01/15 12:38:11;;;;;;;30.67;21.10;;;5.80;99.90;;;;;;5133647;27;20046;-70
2022/01/15 12:40:42;;;;;;;31.63;20.83;;;5.60;99.90;;;;;;5115092;27;20047;-70
2022/01/15 12:43:20;;;;;;;31.17;20.98;;;5.10;99.90;;;;;;5132062;27;20047;-70
2022/01/15 12:45:48;;;;;;;32.58;21.02;;;5.40;99.90;;;;;;5132232;27;20112;-70
2022/01/15 12:48:16;;;;;;;29.42;20.00;;;5.50;99.90;;;;;;5131982;27;20053;-70
2022/01/15 12:50:46;;;;;;;27.25;19.30;;;5.60;99.90;;;;;;5132707;27;20035;-71
2022/01/15 12:53:13;;;;;;;26.75;19.15;;;5.40;99.90;;;;;;5132814;27;20103;-70
2022/01/15 12:55:39;;;;;;;28.13;19.85;;;5.50;99.90;;;;;;5133625;27;20112;-70
2022/01/15 12:58:07;;;;;;;28.52;19.85;;;5.40;99.90;;;;;;5133585;27;20031;-71
2022/01/15 13:00:36;;;;;;;27.98;19.77;;;5.40;99.90;;;;;;5133819;27;20077;-70
2022/01/15 13:03:06;;;;;;;31.02;20.83;;;5.50;99.90;;;;;;5133399;27;20042;-70
2022/01/15 13:05:53;;;;;;;28.27;20.02;;;5.60;99.90;;;;;;5131734;27;20510;-71
2022/01/15 13:08:26;;;;;;;26.83;20.20;;;6.00;99.90;;;;;;5107264;28;20478;-72
2022/01/15 13:11:07;;;;;;;27.02;20.25;;;5.40;99.90;;;;;;5091072;28;20091;-71
2022/01/15 13:13:38;;;;;;;27.05;19.13;;;5.40;99.90;;;;;;5091024;28;20055;-70
2022/01/15 13:16:15;;;;;;;26.50;20.40;;;6.10;99.90;;;;;;5107832;28;20546;-70
2022/01/15 13:18:41;;;;;;;26.25;19.63;;;;;;;;;;5090707;28;20123;-70
2022/01/15 13:21:13;;;;;;;30.45;21.75;;;5.30;99.90;;;;;;5091539;28;20115;-70
2022/01/15 13:23:44;;;;;;;29.10;20.77;;;5.40;99.90;;;;;;5092110;28;20040;-70
2022/01/15 13:26:18;;;;;;;29.98;21.38;;;5.90;99.90;;;;;;5092046;28;20410;-70
2022/01/15 13:28:44;;;;;;;30.48;21.67;;;;;;;;;;5090781;28;20602;-70
2022/01/15 13:31:10;;;;;;;29.05;20.92;;;5.70;99.90;;;;;;5090144;28;20133;-70
2022/01/15 13:33:44;;;;;;;28.35;20.55;;;5.40;99.90;;;;;;5091705;28;20136;-70